createdAt,value
2018-06-24T00:00:42.795Z,0
2018-06-24T00:01:42.743Z,0
2018-06-24T00:02:42.714Z,0
2018-06-24T00:03:42.806Z,0
2018-06-24T00:04:42.765Z,0
2018-06-24T00:05:42.737Z,0
2018-06-24T00:06:42.767Z,0
2018-06-24T00:07:42.770Z,0
2018-06-24T00:08:42.771Z,0
2018-06-24T00:09:42.733Z,0
2018-06-24T00:10:42.777Z,0
2018-06-24T00:11:42.810Z,0
2018-06-24T00:12:42.801Z,0
2018-06-24T00:13:42.765Z,0
2018-06-24T00:14:42.802Z,0
2018-06-24T00:15:42.797Z,0
2018-06-24T00:16:42.692Z,0
2018-06-24T00:17:42.774Z,0
2018-06-24T00:18:42.775Z,0
2018-06-24T00:19:42.739Z,0
2018-06-24T00:20:42.711Z,0
2018-06-24T00:21:42.719Z,0
2018-06-24T00:22:42.789Z,0
2018-06-24T00:23:42.779Z,0
2018-06-24T00:24:42.712Z,0
2018-06-24T00:25:42.729Z,0
2018-06-24T00:26:42.682Z,0
2018-06-24T00:27:42.702Z,0
2018-06-24T00:28:42.722Z,0
2018-06-24T00:29:42.721Z,0
2018-06-24T00:30:42.771Z,0
2018-06-24T00:31:42.813Z,0
2018-06-24T00:32:42.650Z,0
2018-06-24T00:33:42.702Z,0
2018-06-24T00:34:42.706Z,0
2018-06-24T00:35:42.693Z,0
2018-06-24T00:36:42.744Z,0
2018-06-24T00:37:42.687Z,0
2018-06-24T00:38:42.752Z,0
2018-06-24T00:39:42.693Z,0
2018-06-24T00:40:42.815Z,0
2018-06-24T00:41:42.691Z,0
2018-06-24T00:42:42.764Z,0
2018-06-24T00:43:42.772Z,0
2018-06-24T00:44:42.694Z,0
2018-06-24T00:45:42.765Z,0
2018-06-24T00:46:42.719Z,0
2018-06-24T00:47:42.807Z,0
2018-06-24T00:48:42.730Z,0
2018-06-24T00:49:42.798Z,0
2018-06-24T00:50:42.731Z,0
2018-06-24T00:51:42.732Z,0
2018-06-24T00:52:42.798Z,0
2018-06-24T00:53:42.733Z,0
2018-06-24T00:54:42.730Z,0
2018-06-24T00:55:42.739Z,0
2018-06-24T00:56:42.804Z,0
2018-06-24T00:57:42.782Z,0
2018-06-24T00:58:42.777Z,0
2018-06-24T00:59:42.675Z,0
2018-06-24T01:00:42.780Z,0
2018-06-24T01:01:42.650Z,0
2018-06-24T01:02:42.737Z,0
2018-06-24T01:03:42.669Z,0
2018-06-24T01:04:42.711Z,0
2018-06-24T01:05:42.791Z,0
2018-06-24T01:06:42.793Z,0
2018-06-24T01:07:42.681Z,0
2018-06-24T01:08:42.803Z,0
2018-06-24T01:09:42.802Z,0
2018-06-24T01:10:42.731Z,0
2018-06-24T01:11:42.771Z,0
2018-06-24T01:12:42.753Z,0
2018-06-24T01:13:42.718Z,0
2018-06-24T01:14:42.690Z,0
2018-06-24T01:15:42.753Z,0
2018-06-24T01:16:42.808Z,0
2018-06-24T01:17:42.752Z,0
2018-06-24T01:18:42.845Z,0
2018-06-24T01:19:42.735Z,0
2018-06-24T01:20:42.786Z,0
2018-06-24T01:21:42.847Z,0
2018-06-24T01:22:42.850Z,0
2018-06-24T01:23:42.789Z,0
2018-06-24T01:24:42.786Z,0
2018-06-24T01:25:42.724Z,0
2018-06-24T01:26:42.747Z,0
2018-06-24T01:27:42.730Z,0
2018-06-24T01:28:42.785Z,0
2018-06-24T01:29:42.850Z,0
2018-06-24T01:30:42.798Z,0
2018-06-24T01:31:42.825Z,0
2018-06-24T01:32:42.823Z,0
2018-06-24T01:33:42.761Z,0
2018-06-24T01:34:42.859Z,0
2018-06-24T01:35:42.827Z,0
2018-06-24T01:36:42.768Z,0
2018-06-24T01:37:42.852Z,0
2018-06-24T01:38:42.789Z,0
2018-06-24T01:39:42.768Z,0
2018-06-24T01:40:42.857Z,0
2018-06-24T01:41:42.906Z,0
2018-06-24T01:42:42.811Z,0
2018-06-24T01:43:42.754Z,0
2018-06-24T01:44:42.836Z,0
2018-06-24T01:45:42.833Z,0
2018-06-24T01:46:42.756Z,0
2018-06-24T01:47:42.829Z,0
2018-06-24T01:48:42.817Z,0
2018-06-24T01:49:42.830Z,0
2018-06-24T01:50:42.737Z,0
2018-06-24T01:51:42.762Z,0
2018-06-24T01:52:42.813Z,0
2018-06-24T01:53:42.776Z,0
2018-06-24T01:54:42.801Z,0
2018-06-24T01:55:42.800Z,0
2018-06-24T01:56:42.776Z,0
2018-06-24T01:57:42.806Z,0
2018-06-24T01:58:42.870Z,0
2018-06-24T01:59:42.881Z,0
2018-06-24T02:00:42.869Z,0
2018-06-24T02:01:42.802Z,0
2018-06-24T02:02:42.816Z,0
2018-06-24T02:03:42.901Z,0
2018-06-24T02:04:42.814Z,0
2018-06-24T02:05:42.749Z,0
2018-06-24T02:06:42.876Z,0
2018-06-24T02:07:42.753Z,0
2018-06-24T02:08:42.773Z,0
2018-06-24T02:09:42.772Z,0
2018-06-24T02:10:42.889Z,0
2018-06-24T02:11:42.874Z,0
2018-06-24T02:12:42.833Z,0
2018-06-24T02:13:42.859Z,0
2018-06-24T02:14:42.816Z,0
2018-06-24T02:15:51.481Z,0
2018-06-24T02:16:42.757Z,0
2018-06-24T02:17:42.817Z,0
2018-06-24T02:18:42.797Z,0
2018-06-24T02:19:42.822Z,0
2018-06-24T02:20:42.785Z,0
2018-06-24T02:21:42.828Z,0
2018-06-24T02:22:42.823Z,0
2018-06-24T02:23:42.780Z,0
2018-06-24T02:24:42.817Z,0
2018-06-24T02:25:42.902Z,0
2018-06-24T02:26:42.780Z,0
2018-06-24T02:27:42.894Z,0
2018-06-24T02:28:42.841Z,0
2018-06-24T02:29:42.864Z,0
2018-06-24T02:30:42.900Z,0
2018-06-24T02:31:42.923Z,0
2018-06-24T02:32:42.846Z,0
2018-06-24T02:33:42.913Z,0
2018-06-24T02:34:42.782Z,0
2018-06-24T02:35:42.895Z,0
2018-06-24T02:36:42.894Z,0
2018-06-24T02:37:42.803Z,0
2018-06-24T02:38:42.867Z,0
2018-06-24T02:39:42.806Z,0
2018-06-24T02:40:42.878Z,0
2018-06-24T02:41:42.808Z,0
2018-06-24T02:42:42.880Z,0
2018-06-24T02:43:42.874Z,0
2018-06-24T02:44:42.823Z,0
2018-06-24T02:45:42.806Z,0
2018-06-24T02:46:42.809Z,0
2018-06-24T02:47:42.874Z,0
2018-06-24T02:48:42.810Z,0
2018-06-24T02:49:42.898Z,0
2018-06-24T02:50:42.811Z,0
2018-06-24T02:51:42.883Z,0
2018-06-24T02:52:42.814Z,0
2018-06-24T02:53:42.913Z,0
2018-06-24T02:54:42.812Z,0
2018-06-24T02:55:42.812Z,0
2018-06-24T02:56:42.816Z,0
2018-06-24T02:57:42.921Z,0
2018-06-24T02:58:42.808Z,0
2018-06-24T02:59:42.884Z,0
2018-06-24T03:00:42.826Z,0
2018-06-24T03:01:42.886Z,0
2018-06-24T03:02:42.887Z,0
2018-06-24T03:03:42.924Z,0
2018-06-24T03:04:42.928Z,0
2018-06-24T03:05:42.886Z,0
2018-06-24T03:06:42.930Z,0
2018-06-24T03:07:42.822Z,0
2018-06-24T03:08:42.896Z,0
2018-06-24T03:09:42.825Z,0
2018-06-24T03:10:42.825Z,0
2018-06-24T03:11:42.829Z,0
2018-06-24T03:12:42.892Z,0
2018-06-24T03:13:42.854Z,0
2018-06-24T03:14:42.903Z,0
2018-06-24T03:15:42.824Z,0
2018-06-24T03:16:42.893Z,0
2018-06-24T03:17:42.931Z,0
2018-06-24T03:18:42.820Z,0
2018-06-24T03:19:42.867Z,0
2018-06-24T03:20:42.870Z,0
2018-06-24T03:21:42.924Z,0
2018-06-24T03:22:42.897Z,0
2018-06-24T03:23:42.916Z,0
2018-06-24T03:24:42.842Z,0
2018-06-24T03:25:42.932Z,0
2018-06-24T03:26:42.938Z,0
2018-06-24T03:27:42.900Z,0
2018-06-24T03:28:42.929Z,0
2018-06-24T03:29:42.871Z,0
2018-06-24T03:30:42.913Z,0
2018-06-24T03:31:42.801Z,0
2018-06-24T03:32:42.869Z,0
2018-06-24T03:33:42.901Z,0
2018-06-24T03:34:42.923Z,0
2018-06-24T03:35:42.947Z,0
2018-06-24T03:36:42.944Z,0
2018-06-24T03:37:42.884Z,0
2018-06-24T03:38:42.842Z,0
2018-06-24T03:39:42.859Z,0
2018-06-24T03:40:42.911Z,0
2018-06-24T03:41:42.911Z,0
2018-06-24T03:42:42.909Z,0
2018-06-24T03:43:42.910Z,0
2018-06-24T03:44:42.846Z,0
2018-06-24T03:45:42.846Z,0
2018-06-24T03:46:42.854Z,0
2018-06-24T03:47:42.852Z,0
2018-06-24T03:48:42.874Z,0
2018-06-24T03:49:42.893Z,0
2018-06-24T03:50:42.883Z,0
2018-06-24T03:51:42.885Z,0
2018-06-24T03:52:42.834Z,0
2018-06-24T03:53:42.856Z,0
2018-06-24T03:54:42.943Z,0
2018-06-24T03:55:42.825Z,0
2018-06-24T03:56:42.827Z,17
2018-06-24T03:57:42.878Z,18
2018-06-24T03:58:42.854Z,21
2018-06-24T03:59:42.882Z,23
2018-06-24T04:00:42.953Z,26
2018-06-24T04:01:42.886Z,26
2018-06-24T04:02:42.922Z,25
2018-06-24T04:03:42.891Z,26
2018-06-24T04:04:42.963Z,27
2018-06-24T04:05:42.953Z,27
2018-06-24T04:06:42.893Z,27
2018-06-24T04:07:42.950Z,30
2018-06-24T04:08:42.867Z,32
2018-06-24T04:09:42.898Z,33
2018-06-24T04:10:42.897Z,34
2018-06-24T04:11:42.962Z,33
2018-06-24T04:12:42.904Z,36
2018-06-24T04:13:42.969Z,38
2018-06-24T04:14:42.948Z,41
2018-06-24T04:15:42.964Z,42
2018-06-24T04:16:42.952Z,44
2018-06-24T04:17:42.832Z,47
2018-06-24T04:18:42.831Z,48
2018-06-24T04:19:42.843Z,48
2018-06-24T04:20:42.835Z,47
2018-06-24T04:21:42.876Z,48
2018-06-24T04:22:42.912Z,50
2018-06-24T04:23:42.937Z,54
2018-06-24T04:24:42.968Z,60
2018-06-24T04:25:43.048Z,64
2018-06-24T04:26:42.906Z,66
2018-06-24T04:27:42.911Z,68
2018-06-24T04:28:42.939Z,69
2018-06-24T04:29:42.913Z,69
2018-06-24T04:30:42.942Z,71
2018-06-24T04:31:42.943Z,73
2018-06-24T04:32:42.965Z,77
2018-06-24T04:33:42.985Z,81
2018-06-24T04:34:42.851Z,86
2018-06-24T04:35:42.903Z,93
2018-06-24T04:36:42.868Z,99
2018-06-24T04:37:42.984Z,107
2018-06-24T04:38:42.965Z,114
2018-06-24T04:39:42.983Z,123
2018-06-24T04:40:42.977Z,125
2018-06-24T04:41:42.976Z,137
2018-06-24T04:42:42.925Z,139
2018-06-24T04:43:42.908Z,150
2018-06-24T04:44:42.915Z,153
2018-06-24T04:45:42.924Z,153
2018-06-24T04:46:42.887Z,153
2018-06-24T04:47:42.972Z,147
2018-06-24T04:48:42.907Z,145
2018-06-24T04:49:42.890Z,146
2018-06-24T04:50:42.954Z,141
2018-06-24T04:51:43.072Z,136
2018-06-24T04:52:42.913Z,132
2018-06-24T04:53:42.893Z,129
2018-06-24T04:54:42.986Z,125
2018-06-24T04:55:42.932Z,125
2018-06-24T04:56:42.957Z,124
2018-06-24T04:57:42.869Z,126
2018-06-24T04:58:42.990Z,130
2018-06-24T04:59:42.982Z,136
2018-06-24T05:00:43.033Z,139
2018-06-24T05:01:43.000Z,139
2018-06-24T05:02:42.938Z,141
2018-06-24T05:03:42.943Z,140
2018-06-24T05:04:42.936Z,137
2018-06-24T05:05:42.961Z,135
2018-06-24T05:06:42.966Z,134
2018-06-24T05:07:42.926Z,132
2018-06-24T05:08:42.905Z,122
2018-06-24T05:09:42.940Z,125
2018-06-24T05:10:42.928Z,124
2018-06-24T05:11:42.968Z,122
2018-06-24T05:12:42.914Z,120
2018-06-24T05:13:42.972Z,121
2018-06-24T05:14:42.970Z,120
2018-06-24T05:15:43.039Z,124
2018-06-24T05:16:42.972Z,123
2018-06-24T05:17:42.916Z,115
2018-06-24T05:18:42.858Z,113
2018-06-24T05:19:42.976Z,113
2018-06-24T05:20:42.905Z,119
2018-06-24T05:21:42.974Z,121
2018-06-24T05:22:42.951Z,122
2018-06-24T05:23:42.910Z,121
2018-06-24T05:24:42.912Z,117
2018-06-24T05:25:42.914Z,118
2018-06-24T05:26:42.916Z,125
2018-06-24T05:27:42.982Z,124
2018-06-24T05:28:43.014Z,122
2018-06-24T05:29:42.945Z,121
2018-06-24T05:30:42.988Z,117
2018-06-24T05:31:42.951Z,120
2018-06-24T05:32:43.024Z,122
2018-06-24T05:33:42.983Z,121
2018-06-24T05:34:42.888Z,118
2018-06-24T05:35:42.885Z,119
2018-06-24T05:36:42.965Z,115
2018-06-24T05:37:43.028Z,102
2018-06-24T05:38:43.009Z,109
2018-06-24T05:39:42.953Z,108
2018-06-24T05:40:43.022Z,108
2018-06-24T05:41:43.026Z,109
2018-06-24T05:42:43.008Z,111
2018-06-24T05:43:42.925Z,112
2018-06-24T05:44:42.974Z,108
2018-06-24T05:45:42.897Z,109
2018-06-24T05:46:42.954Z,108
2018-06-24T05:47:42.935Z,109
2018-06-24T05:48:42.964Z,114
2018-06-24T05:49:42.977Z,110
2018-06-24T05:50:42.962Z,119
2018-06-24T05:51:43.025Z,121
2018-06-24T05:52:42.918Z,122
2018-06-24T05:53:42.964Z,126
2018-06-24T05:54:43.018Z,130
2018-06-24T05:55:42.963Z,138
2018-06-24T05:56:43.038Z,146
2018-06-24T05:57:43.024Z,151
2018-06-24T05:58:42.906Z,153
2018-06-24T05:59:42.865Z,153
2018-06-24T06:00:42.969Z,155
2018-06-24T06:01:42.891Z,158
2018-06-24T06:02:42.987Z,161
2018-06-24T06:03:42.876Z,164
2018-06-24T06:04:42.995Z,164
2018-06-24T06:05:42.892Z,161
2018-06-24T06:06:42.909Z,159
2018-06-24T06:07:42.934Z,155
2018-06-24T06:08:42.913Z,153
2018-06-24T06:09:42.976Z,151
2018-06-24T06:10:42.972Z,151
2018-06-24T06:11:43.038Z,153
2018-06-24T06:12:42.963Z,153
2018-06-24T06:13:42.977Z,153
2018-06-24T06:14:42.970Z,160
2018-06-24T06:15:42.986Z,170
2018-06-24T06:16:43.010Z,173
2018-06-24T06:17:43.036Z,175
2018-06-24T06:18:43.010Z,178
2018-06-24T06:19:43.010Z,180
2018-06-24T06:20:43.012Z,181
2018-06-24T06:21:43.039Z,177
2018-06-24T06:22:43.015Z,171
2018-06-24T06:23:42.976Z,165
2018-06-24T06:24:42.954Z,161
2018-06-24T06:25:42.952Z,161
2018-06-24T06:26:43.017Z,165
2018-06-24T06:27:42.957Z,167
2018-06-24T06:28:42.991Z,169
2018-06-24T06:29:42.987Z,170
2018-06-24T06:30:42.940Z,169
2018-06-24T06:31:43.064Z,168
2018-06-24T06:32:42.976Z,167
2018-06-24T06:33:43.092Z,167
2018-06-24T06:34:43.024Z,169
2018-06-24T06:35:43.048Z,170
2018-06-24T06:36:43.014Z,171
2018-06-24T06:37:43.007Z,173
2018-06-24T06:38:43.005Z,173
2018-06-24T06:39:42.997Z,172
2018-06-24T06:40:43.052Z,172
2018-06-24T06:41:43.030Z,174
2018-06-24T06:42:42.984Z,178
2018-06-24T06:43:42.990Z,184
2018-06-24T06:44:43.074Z,187
2018-06-24T06:45:43.262Z,188
2018-06-24T06:46:42.996Z,188
2018-06-24T06:47:42.929Z,188
2018-06-24T06:48:42.994Z,187
2018-06-24T06:49:43.035Z,183
2018-06-24T06:50:42.967Z,180
2018-06-24T06:51:43.033Z,179
2018-06-24T06:52:42.968Z,180
2018-06-24T06:53:43.038Z,181
2018-06-24T06:54:43.005Z,184
2018-06-24T06:55:42.968Z,190
2018-06-24T06:56:43.036Z,201
2018-06-24T06:57:42.980Z,212
2018-06-24T06:58:43.037Z,223
2018-06-24T06:59:42.975Z,234
2018-06-24T07:00:43.047Z,245
2018-06-24T07:01:42.975Z,255
2018-06-24T07:02:43.043Z,263
2018-06-24T07:03:43.135Z,274
2018-06-24T07:04:42.979Z,287
2018-06-24T07:05:43.118Z,302
2018-06-24T07:06:43.082Z,305
2018-06-24T07:07:42.979Z,303
2018-06-24T07:08:43.011Z,298
2018-06-24T07:09:42.949Z,291
2018-06-24T07:10:43.023Z,289
2018-06-24T07:11:42.999Z,276
2018-06-24T07:12:43.014Z,266
2018-06-24T07:13:43.070Z,260
2018-06-24T07:14:43.071Z,245
2018-06-24T07:15:42.949Z,237
2018-06-24T07:16:43.021Z,232
2018-06-24T07:17:42.990Z,227
2018-06-24T07:18:43.021Z,221
2018-06-24T07:19:43.028Z,219
2018-06-24T07:20:43.092Z,215
2018-06-24T07:21:43.052Z,211
2018-06-24T07:22:43.084Z,212
2018-06-24T07:23:43.015Z,209
2018-06-24T07:24:43.069Z,207
2018-06-24T07:25:43.039Z,220
2018-06-24T07:26:43.034Z,236
2018-06-24T07:27:43.120Z,250
2018-06-24T07:28:43.032Z,266
2018-06-24T07:29:43.024Z,256
2018-06-24T07:30:43.037Z,243
2018-06-24T07:31:43.021Z,238
2018-06-24T07:32:43.002Z,237
2018-06-24T07:33:43.146Z,237
2018-06-24T07:34:42.971Z,234
2018-06-24T07:35:42.967Z,242
2018-06-24T07:36:43.035Z,245
2018-06-24T07:37:43.084Z,248
2018-06-24T07:38:43.052Z,250
2018-06-24T07:39:43.017Z,245
2018-06-24T07:40:42.935Z,252
2018-06-24T07:41:43.058Z,262
2018-06-24T07:42:42.975Z,265
2018-06-24T07:43:43.056Z,261
2018-06-24T07:44:43.034Z,251
2018-06-24T07:45:43.051Z,229
2018-06-24T07:46:42.974Z,216
2018-06-24T07:47:43.054Z,212
2018-06-24T07:48:43.100Z,210
2018-06-24T07:49:43.134Z,213
2018-06-24T07:50:43.105Z,218
2018-06-24T07:51:42.975Z,221
2018-06-24T07:52:42.975Z,232
2018-06-24T07:53:42.984Z,239
2018-06-24T07:54:42.994Z,243
2018-06-24T07:55:43.042Z,248
2018-06-24T07:56:43.078Z,253
2018-06-24T07:57:43.000Z,256
2018-06-24T07:58:43.012Z,269
2018-06-24T07:59:43.080Z,277
2018-06-24T08:00:43.013Z,279
2018-06-24T08:01:43.012Z,271
2018-06-24T08:02:43.087Z,273
2018-06-24T08:03:43.063Z,287
2018-06-24T08:04:43.103Z,292
2018-06-24T08:05:43.017Z,308
2018-06-24T08:06:43.087Z,331
2018-06-24T08:07:43.014Z,352
2018-06-24T08:08:43.084Z,368
2018-06-24T08:09:43.020Z,386
2018-06-24T08:10:43.021Z,403
2018-06-24T08:11:43.020Z,414
2018-06-24T08:12:43.055Z,413
2018-06-24T08:13:43.023Z,405
2018-06-24T08:14:43.087Z,401
2018-06-24T08:15:43.026Z,400
2018-06-24T08:16:43.091Z,406
2018-06-24T08:17:43.091Z,417
2018-06-24T08:18:43.071Z,418
2018-06-24T08:19:42.959Z,414
2018-06-24T08:20:42.954Z,406
2018-06-24T08:21:42.961Z,392
2018-06-24T08:22:43.040Z,398
2018-06-24T08:23:42.973Z,414
2018-06-24T08:24:43.031Z,440
2018-06-24T08:25:42.981Z,459
2018-06-24T08:26:42.956Z,469
2018-06-24T08:27:43.079Z,459
2018-06-24T08:28:43.125Z,459
2018-06-24T08:29:43.138Z,462
2018-06-24T08:30:43.133Z,470
2018-06-24T08:31:43.183Z,464
2018-06-24T08:32:42.999Z,456
2018-06-24T08:33:43.007Z,432
2018-06-24T08:34:43.061Z,416
2018-06-24T08:35:43.039Z,405
2018-06-24T08:36:43.065Z,403
2018-06-24T08:37:43.130Z,413
2018-06-24T08:38:43.105Z,415
2018-06-24T08:39:43.011Z,402
2018-06-24T08:40:43.078Z,390
2018-06-24T08:41:43.131Z,369
2018-06-24T08:42:43.144Z,340
2018-06-24T08:43:43.063Z,322
2018-06-24T08:44:43.038Z,322
2018-06-24T08:45:43.065Z,341
2018-06-24T08:46:43.107Z,354
2018-06-24T08:47:43.092Z,359
2018-06-24T08:48:43.010Z,354
2018-06-24T08:49:43.130Z,346
2018-06-24T08:50:43.145Z,333
2018-06-24T08:51:43.088Z,320
2018-06-24T08:52:43.015Z,307
2018-06-24T08:53:43.136Z,308
2018-06-24T08:54:43.098Z,306
2018-06-24T08:55:43.131Z,302
2018-06-24T08:56:43.094Z,298
2018-06-24T08:57:43.144Z,294
2018-06-24T08:58:43.115Z,296
2018-06-24T08:59:43.119Z,305
2018-06-24T09:00:43.238Z,304
2018-06-24T09:01:43.051Z,301
2018-06-24T09:02:43.056Z,300
2018-06-24T09:03:43.123Z,298
2018-06-24T09:04:43.053Z,291
2018-06-24T09:05:43.136Z,280
2018-06-24T09:06:43.056Z,280
2018-06-24T09:07:43.061Z,279
2018-06-24T09:08:42.988Z,283
2018-06-24T09:09:43.119Z,285
2018-06-24T09:10:43.080Z,278
2018-06-24T09:11:43.122Z,277
2018-06-24T09:12:43.120Z,277
2018-06-24T09:13:43.111Z,278
2018-06-24T09:14:43.128Z,276
2018-06-24T09:15:43.091Z,283
2018-06-24T09:16:43.033Z,296
2018-06-24T09:17:43.016Z,315
2018-06-24T09:18:43.168Z,331
2018-06-24T09:19:43.163Z,342
2018-06-24T09:20:43.157Z,349
2018-06-24T09:21:43.171Z,353
2018-06-24T09:22:43.110Z,354
2018-06-24T09:23:43.149Z,356
2018-06-24T09:24:43.126Z,364
2018-06-24T09:25:43.052Z,376
2018-06-24T09:26:43.038Z,388
2018-06-24T09:27:43.149Z,394
2018-06-24T09:28:43.112Z,393
2018-06-24T09:29:43.038Z,390
2018-06-24T09:30:43.196Z,390
2018-06-24T09:31:43.165Z,390
2018-06-24T09:32:43.106Z,393
2018-06-24T09:33:43.168Z,393
2018-06-24T09:34:43.154Z,381
2018-06-24T09:35:43.158Z,366
2018-06-24T09:36:43.181Z,368
2018-06-24T09:37:43.046Z,385
2018-06-24T09:38:43.147Z,395
2018-06-24T09:39:43.171Z,402
2018-06-24T09:40:43.046Z,402
2018-06-24T09:41:43.085Z,399
2018-06-24T09:42:43.126Z,397
2018-06-24T09:43:43.122Z,398
2018-06-24T09:44:43.120Z,405
2018-06-24T09:45:43.088Z,418
2018-06-24T09:46:43.152Z,433
2018-06-24T09:47:43.072Z,444
2018-06-24T09:48:43.166Z,445
2018-06-24T09:49:43.116Z,449
2018-06-24T09:50:43.089Z,448
2018-06-24T09:51:43.186Z,445
2018-06-24T09:52:43.102Z,440
2018-06-24T09:53:43.043Z,436
2018-06-24T09:54:43.090Z,423
2018-06-24T09:55:43.164Z,405
2018-06-24T09:56:43.160Z,391
2018-06-24T09:57:43.088Z,385
2018-06-24T09:58:43.091Z,389
2018-06-24T09:59:43.157Z,404
2018-06-24T10:00:43.159Z,418
2018-06-24T10:01:43.093Z,420
2018-06-24T10:02:43.066Z,420
2018-06-24T10:03:43.165Z,419
2018-06-24T10:04:43.153Z,416
2018-06-24T10:05:43.208Z,419
2018-06-24T10:06:43.165Z,421
2018-06-24T10:07:43.206Z,419
2018-06-24T10:08:43.170Z,418
2018-06-24T10:09:43.073Z,416
2018-06-24T10:10:43.121Z,409
2018-06-24T10:11:43.129Z,394
2018-06-24T10:12:43.087Z,375
2018-06-24T10:13:43.132Z,344
2018-06-24T10:14:43.129Z,315
2018-06-24T10:15:43.170Z,292
2018-06-24T10:16:43.195Z,271
2018-06-24T10:17:43.173Z,258
2018-06-24T10:18:43.128Z,245
2018-06-24T10:19:43.105Z,227
2018-06-24T10:20:43.106Z,213
2018-06-24T10:21:43.174Z,204
2018-06-24T10:22:43.115Z,201
2018-06-24T10:23:43.176Z,208
2018-06-24T10:24:43.110Z,225
2018-06-24T10:25:43.180Z,251
2018-06-24T10:26:43.149Z,280
2018-06-24T10:27:43.185Z,322
2018-06-24T10:28:43.175Z,386
2018-06-24T10:29:43.176Z,465
2018-06-24T10:30:43.081Z,547
2018-06-24T10:31:43.218Z,613
2018-06-24T10:32:43.109Z,641
2018-06-24T10:33:43.092Z,652
2018-06-24T10:34:43.208Z,660
2018-06-24T10:35:43.164Z,682
2018-06-24T10:36:43.199Z,692
2018-06-24T10:37:43.195Z,749
2018-06-24T10:38:43.210Z,706
2018-06-24T10:39:43.178Z,601
2018-06-24T10:40:43.116Z,525
2018-06-24T10:41:43.091Z,467
2018-06-24T10:42:43.057Z,428
2018-06-24T10:43:43.178Z,408
2018-06-24T10:44:43.098Z,384
2018-06-24T10:45:43.095Z,380
2018-06-24T10:46:43.174Z,388
2018-06-24T10:47:43.129Z,392
2018-06-24T10:48:43.098Z,384
2018-06-24T10:49:43.195Z,380
2018-06-24T10:50:43.196Z,366
2018-06-24T10:51:43.124Z,360
2018-06-24T10:52:43.129Z,348
2018-06-24T10:53:43.130Z,340
2018-06-24T10:54:43.129Z,326
2018-06-24T10:55:43.198Z,317
2018-06-24T10:56:43.129Z,304
2018-06-24T10:57:43.132Z,279
2018-06-24T10:58:43.197Z,264
2018-06-24T10:59:43.118Z,262
2018-06-24T11:00:43.179Z,254
2018-06-24T11:01:43.154Z,247
2018-06-24T11:02:43.176Z,238
2018-06-24T11:03:43.202Z,234
2018-06-24T11:04:43.205Z,229
2018-06-24T11:05:43.171Z,224
2018-06-24T11:06:43.173Z,219
2018-06-24T11:07:43.165Z,213
2018-06-24T11:08:43.200Z,219
2018-06-24T11:09:43.269Z,224
2018-06-24T11:10:43.148Z,222
2018-06-24T11:11:43.243Z,217
2018-06-24T11:12:43.161Z,213
2018-06-24T11:13:43.231Z,204
2018-06-24T11:14:43.109Z,199
2018-06-24T11:15:43.231Z,197
2018-06-24T11:16:43.163Z,194
2018-06-24T11:17:43.234Z,191
2018-06-24T11:18:43.230Z,190
2018-06-24T11:19:43.176Z,185
2018-06-24T11:20:43.217Z,182
2018-06-24T11:21:43.230Z,183
2018-06-24T11:22:43.235Z,182
2018-06-24T11:23:43.187Z,180
2018-06-24T11:24:43.189Z,170
2018-06-24T11:25:43.173Z,173
2018-06-24T11:26:43.220Z,182
2018-06-24T11:27:43.185Z,187
2018-06-24T11:28:43.241Z,186
2018-06-24T11:29:43.092Z,188
2018-06-24T11:30:43.159Z,193
2018-06-24T11:31:43.099Z,195
2018-06-24T11:32:43.091Z,202
2018-06-24T11:33:43.046Z,214
2018-06-24T11:34:43.127Z,226
2018-06-24T11:35:43.040Z,239
2018-06-24T11:36:43.042Z,249
2018-06-24T11:37:43.100Z,250
2018-06-24T11:38:43.101Z,254
2018-06-24T11:39:43.094Z,264
2018-06-24T11:40:43.210Z,265
2018-06-24T11:41:43.243Z,259
2018-06-24T11:42:43.124Z,254
2018-06-24T11:43:43.134Z,237
2018-06-24T11:44:43.212Z,217
2018-06-24T11:45:43.224Z,210
2018-06-24T11:46:43.136Z,210
2018-06-24T11:47:43.227Z,217
2018-06-24T11:48:43.222Z,234
2018-06-24T11:49:43.189Z,246
2018-06-24T11:50:43.205Z,265
2018-06-24T11:51:43.197Z,293
2018-06-24T11:52:43.210Z,311
2018-06-24T11:53:43.261Z,327
2018-06-24T11:54:43.212Z,348
2018-06-24T11:55:43.269Z,380
2018-06-24T11:56:43.200Z,426
2018-06-24T11:57:43.136Z,460
2018-06-24T11:58:43.212Z,477
2018-06-24T11:59:43.260Z,490
2018-06-24T12:00:43.165Z,493
2018-06-24T12:01:43.170Z,475
2018-06-24T12:02:43.281Z,439
2018-06-24T12:03:43.196Z,430
2018-06-24T12:04:43.223Z,437
2018-06-24T12:05:43.229Z,449
2018-06-24T12:06:43.268Z,440
2018-06-24T12:07:43.220Z,422
2018-06-24T12:08:43.271Z,405
2018-06-24T12:09:43.325Z,396
2018-06-24T12:10:43.271Z,372
2018-06-24T12:11:43.208Z,365
2018-06-24T12:12:43.274Z,375
2018-06-24T12:13:43.290Z,371
2018-06-24T12:14:43.244Z,360
2018-06-24T12:15:43.281Z,351
2018-06-24T12:16:43.171Z,340
2018-06-24T12:17:43.280Z,326
2018-06-24T12:18:43.233Z,312
2018-06-24T12:19:43.276Z,306
2018-06-24T12:20:43.204Z,285
2018-06-24T12:21:43.282Z,265
2018-06-24T12:22:43.277Z,285
2018-06-24T12:23:43.238Z,302
2018-06-24T12:24:43.258Z,320
2018-06-24T12:25:43.164Z,321
2018-06-24T12:26:43.193Z,336
2018-06-24T12:27:43.212Z,354
2018-06-24T12:28:43.288Z,361
2018-06-24T12:29:43.248Z,400
2018-06-24T12:30:43.198Z,410
2018-06-24T12:31:43.157Z,408
2018-06-24T12:32:43.165Z,429
2018-06-24T12:33:43.245Z,453
2018-06-24T12:34:43.253Z,477
2018-06-24T12:35:43.167Z,483
2018-06-24T12:36:43.251Z,526
2018-06-24T12:37:43.194Z,510
2018-06-24T12:38:43.214Z,495
2018-06-24T12:39:43.393Z,470
2018-06-24T12:40:43.291Z,482
2018-06-24T12:41:43.298Z,494
2018-06-24T12:42:43.233Z,497
2018-06-24T12:43:43.249Z,478
2018-06-24T12:44:43.175Z,448
2018-06-24T12:45:43.247Z,424
2018-06-24T12:46:43.240Z,411
2018-06-24T12:47:43.252Z,425
2018-06-24T12:48:43.195Z,434
2018-06-24T12:49:43.232Z,421
2018-06-24T12:50:43.253Z,401
2018-06-24T12:51:43.245Z,390
2018-06-24T12:52:43.363Z,384
2018-06-24T12:53:43.253Z,360
2018-06-24T12:54:43.344Z,315
2018-06-24T12:55:43.294Z,277
2018-06-24T12:56:43.308Z,260
2018-06-24T12:57:43.315Z,245
2018-06-24T12:58:43.421Z,233
2018-06-24T12:59:43.484Z,228
2018-06-24T13:00:43.690Z,225
2018-06-24T13:01:43.318Z,218
2018-06-24T13:02:43.279Z,209
2018-06-24T13:03:43.217Z,207
2018-06-24T13:04:43.219Z,200
2018-06-24T13:05:43.280Z,196
2018-06-24T13:06:43.214Z,212
2018-06-24T13:07:43.281Z,242
2018-06-24T13:08:43.261Z,296
2018-06-24T13:09:43.303Z,369
2018-06-24T13:10:43.185Z,423
2018-06-24T13:11:43.261Z,449
2018-06-24T13:12:43.264Z,444
2018-06-24T13:13:43.252Z,418
2018-06-24T13:14:43.293Z,409
2018-06-24T13:15:43.271Z,413
2018-06-24T13:16:43.327Z,421
2018-06-24T13:17:43.264Z,429
2018-06-24T13:18:43.315Z,436
2018-06-24T13:19:43.249Z,447
2018-06-24T13:20:43.234Z,420
2018-06-24T13:21:43.297Z,382
2018-06-24T13:22:43.229Z,328
2018-06-24T13:23:43.229Z,272
2018-06-24T13:24:43.226Z,247
2018-06-24T13:25:43.292Z,248
2018-06-24T13:26:43.345Z,240
2018-06-24T13:27:43.232Z,224
2018-06-24T13:28:43.231Z,203
2018-06-24T13:29:43.301Z,177
2018-06-24T13:30:43.231Z,169
2018-06-24T13:31:43.229Z,172
2018-06-24T13:32:43.233Z,193
2018-06-24T13:33:43.233Z,221
2018-06-24T13:34:43.302Z,252
2018-06-24T13:35:43.237Z,278
2018-06-24T13:36:43.393Z,311
2018-06-24T13:37:43.202Z,315
2018-06-24T13:38:43.235Z,303
2018-06-24T13:39:43.292Z,286
2018-06-24T13:40:43.232Z,280
2018-06-24T13:41:43.225Z,297
2018-06-24T13:42:43.194Z,302
2018-06-24T13:43:43.291Z,297
2018-06-24T13:44:43.204Z,292
2018-06-24T13:45:43.286Z,268
2018-06-24T13:46:43.209Z,223
2018-06-24T13:47:43.248Z,181
2018-06-24T13:48:43.269Z,148
2018-06-24T13:49:43.343Z,129
2018-06-24T13:50:43.277Z,112
2018-06-24T13:51:43.339Z,99
2018-06-24T13:52:43.253Z,82
2018-06-24T13:53:43.277Z,69
2018-06-24T13:54:43.283Z,61
2018-06-24T13:55:43.316Z,60
2018-06-24T13:56:43.284Z,64
2018-06-24T13:57:43.351Z,74
2018-06-24T13:58:43.393Z,93
2018-06-24T13:59:43.263Z,111
2018-06-24T14:00:43.240Z,121
2018-06-24T14:01:43.191Z,142
2018-06-24T14:02:43.315Z,140
2018-06-24T14:03:43.310Z,138
2018-06-24T14:04:43.225Z,134